Create Custom Reports and Graphics: Custom Report

North Region Latest Observations

Map

10 Minute Data

Winnemucca/Elko Latest Observations

Map

10 Minute Data

South Region Latest Observations

Map

10 Minute Data

Latest Observation

114 Stations

10 Minute Data
as of 9/5/26 9:18 PM PDT
Station Date Time Temp (°F) RH (%) Dew Pt (°F) Wind Spd (mph) Wind Dir (°) Wind Gust (mph) Wind Gst Dir (°) Latest Rain (In) Soil Moist (%) Soil Temp (°F) Daily Rain (In) Daily Min Temp (°F) Daily Max Temp (°F) Daily Max Wind (mph)
Hobart Mills 9/5/26 2110 49.1   0.5 74   0 41.4   0.4 0.8   1.0 WNW | 287 3.4   0.6 SW | 224 0.00 7.5   0.0 62.6   0.8 0.00 39.0   7.8 62.7   5.3 20.4   3.6
Prosser Dam 9/5/26 2110 50.8   0.1 70   4 41.4   1.2 1.8   0.5 SSW | 197 5.8   1.1 SW | 236 0.00 5.2   0.0 59.5   1.0 0.00 35.3   12.8 63.2   3.2 20.6   0.4
West Incline Village 9/5/26 2110 47.7   2.8 68   9 37.6   0.6 1.2   0.6 N | 349 4.8   2.2 NNW | 329 0.00 11.6   0.1 55.2   0.8 0.00 43.4   0.4 58.2   7.4 18.6   3.0
Incline Village (Fairview Blvd) 9/5/26 2110 50.2   3.1 65   8 38.8   0.0 0.6   0.2 WSW | 252 6.2   1.0 SSW | 210 0.00 7.6   0.0 67.2   0.8 0.00 46.3   0.7 60.6   2.6 14.8   3.7
Incline Village (Diamond Peak) 9/5/26 2110 46.9   2.8 72   7 38.2   0.3 2.0   1.5 WNW | 287 10.3   0.0 SW | 232 0.00 2.4   0.1 56.3   0.3 0.00 44.2   0.2 58.2   7.3 11.9   1.0
Incline Village (Mill Creek) 9/5/26 2110 51.7   3.0 68   4 41.4   1.5 1.0   0.2 SW | 223 3.4   2.1 NW | 310 0.00 2.9   0.1 59.9   0.9 0.00 45.2   3.3 62.1   6.6 13.9   5.0
Incline Village (Lakeshore Blvd) 9/5/26 2110 53.2   3.3 68   3 42.9   1.9 0.6   0.2 NW | 311 5.1   2.2 SW | 222 0.00 19.2   3.0 60.7   0.0 0.00 44.0   5.9 60.0   2.9 11.6   5.5
Glenbrook 9/5/26 2110 51.9   1.2 73   7 43.7   3.8 1.9   1.0 NNE | 13 4.2   0.9 N | 351 0.00 43.5   0.0 58.1   0.1 0.00 40.1   10.2 62.4   4.6 19.8   6.6
Zephyr Cove 9/5/26 2110 52.6   4.7 61   10 39.4   0.5 0.5   0.5 ESE | 108 4.2   4.2 NW | 307 0.00 2.9   0.0 67.0   2.7 0.00 44.6   3.2 66.0   5.6 8.7   3.8
Kingsbury Grade 9/5/26 2110 49.4   3.4 69   9 39.6   0.3 1.1   0.7 N | 359 3.0   1.0 N | 8 0.00 2.2   0.0 64.9   0.8 0.00 39.2   6.3 64.6   6.5 16.8   1.6
South Daggett Pass (Ridge) 9/5/26 2110 45.8   3.5 78   8 39.4   0.9 0.8   0.2 WNW | 290 7.7   1.0 W | 264 0.00 2.2   0.0 60.1   1.0 0.00 41.9   0.1 59.3   4.4 23.0   4.6
Palomino Valley 9/5/26 2110 61.2   5.3 46   12 40.4   1.0 3.9   3.5 NW | 309 6.0   3.4 NW | 318 0.00 6.6   0.0 75.0   0.7 0.00 38.8   15.4 74.3   3.5 24.2   10.4
East Cold Springs 9/5/26 2110 56.3   1.4 53   2 39.4   0.1 17.3   6.5 W | 259 22.5   8.3 W | 262 0.00 1.5   0.0 69.2   1.3 0.00 45.4   5.2 68.4   4.4 26.1   4.7
Peavine 9/5/26 2110 54.2   1.1 55   1 38.7   1.3 25.3   11.1 W | 265 31.6   16.5 W | 271 0.00 4.3   0.1 69.6   2.0 0.00 44.9   5.2 65.6   4.8 36.0   12.4
West Verdi Peak 9/5/26 2210 49.9   2.1 68   7 40.0   0.5 1.1   1.6 SSE | 150 4.0   8.1 SE | 134 0.00 6.4   0.1 65.1   1.1 0.00 43.0   3.5 63.3   5.4 19.9   0.0
West Verdi 9/5/26 2110 57.2   0.5 57   2 42.3   1.5 4.3   7.2 SW | 215 14.0   10.4 S | 173 0.00 6.0   0.1 74.7   1.6 0.00 44.4   7.8 68.2   4.6 24.2   3.6
South Verdi 9/5/26 2110 54.6   0.1 61   5 41.3   1.9 6.0   27.1 SSW | 201 10.2   30.2 S | 187 0.00 10.2   0.1 70.8   1.6 0.00 46.8   4.7 66.1   4.0 37.4   3.0
Northwest Reno 9/5/26 2110 58.6   2.2 52   4 41.2   0.3 25.4   6.8 W | 266 34.0   15.0 W | 272 0.00 24.2   0.3 72.9   0.3 0.00 48.4   5.9 69.3   5.7 42.4   8.8
North Lawton 8/28/26 1620 63.8   17.1 74   52 55.4   16.5 1.5   11.6 ESE | 121 5.1   19.0 SE | 124 0.00 - 78.2   0.0 0.05 59.2   7.5 71.9   13.3 20.4   4.6
West Reno (Mogul) 9/5/26 2110 56.9   1.4 58   1 42.1   0.9 12.1   3.5 WSW | 250 17.0   1.9 WSW | 252 0.00 19.4   0.1 75.8   0.8 0.00 47.3   5.9 69.5   4.5 23.7   7.1
Caughlin (Hunter Lake Trail) 9/5/26 2110 58.3   3.7 52   6 40.8   0.6 10.0   7.2 WSW | 256 17.3   7.7 WSW | 242 0.00 16.0   0.1 70.6   0.1 0.00 46.7   5.9 70.6   6.3 33.2   3.5
ArrowCreek 9/5/26 2110 58.8   2.3 51   2 40.8   1.0 4.7   0.0 SSE | 151 8.7   1.5 SSE | 167 0.00 - 32.0   0.0 0.00 47.4   8.4 71.2   5.9 35.5   4.8
Tracy 9/5/26 2110 65.1   1.9 41   2 40.9   0.8 7.3   2.0 WNW | 282 16.2   0.6 W | 266 0.00 15.5   0.1 76.0   1.0 0.00 48.7   13.5 77.1   5.3 25.1   10.8
Virginia Highlands 9/5/26 2110 55.7   2.3 56   6 40.1   0.3 4.4   0.8 W | 273 12.2   1.6 W | 270 0.00 7.8   0.1 71.3   0.7 0.00 47.7   5.5 67.4   5.2 22.7   12.2
Virginia City 9/5/26 2110 56.3   2.9 51   4 38.5   0.6 9.5   0.7 W | 279 17.8   0.1 W | 270 0.00 4.8   0.0 72.6   0.3 0.00 46.0   6.9 68.0   6.1 26.6   8.2
Six Mile Canyon 9/5/26 2110 65.8   2.8 38   2 39.4   1.0 10.0   1.4 NW | 309 13.4   0.1 NW | 308 0.00 12.4   0.1 77.4   0.6 0.00 49.6   12.2 76.6   4.5 26.0   9.7
Mt Rose Highway 9/5/26 2110 52.1   4.0 53   11 35.8   1.0 6.8   1.8 S | 182 12.5   13.4 SSW | 202 0.00 7.4   0.0 58.8   0.8 0.00 45.1   0.2 62.1   6.0 28.6   4.8
Pleasant Valley 9/5/26 2110 61.8   2.1 45   3 40.2   0.1 5.3   10.9 ESE | 122 12.0   13.8 SE | 132 0.00 2.3   0.0 73.5   0.4 0.00 41.9   14.7 71.7   5.3 32.4   2.2
New Washoe City 9/5/26 2110 58.8   1.6 52   4 41.3   0.6 1.0   9.3 SE | 143 11.8   4.7 S | 179 0.00 3.4   0.0 69.6   1.1 0.00 45.2   11.8 69.9   4.4 28.8   4.2
Franktown Creek 9/5/26 2110 59.5   1.1 51   1 41.6   0.5 3.0   3.0 W | 262 10.8   12.2 SSW | 204 0.00 7.0   0.0 68.6   1.2 0.00 45.0   10.1 69.2   4.4 23.1   2.4
Musgrove Creek 9/5/26 2110 56.8   1.9 58   4 42.2   0.1 3.6   0.3 SW | 220 9.1   3.1 SSW | 209 0.00 10.2   0.1 59.5   0.2 0.00 49.2   2.7 67.1   3.8 18.9   0.4
East Carson 11/23/24 0110 28.6   28.4 - - 4.7   11.0 SW | 220 14.7   10.1 SW | 219 0.02 - 50.9   0.1 0.02 -25.9   79.1 42.9   14.6 16.0   10.7
Kings Canyon 9/5/26 2110 63.0   3.9 36   9 35.9   2.3 6.3   0.8 SW | 229 13.5   4.5 SSW | 203 0.00 4.1   0.0 68.5   1.0 0.00 43.6   13.5 70.0   6.1 26.3   0.4
Carson City (Voltaire Canyon) 9/5/26 2110 61.9   3.4 47   6 41.6   0.2 12.8   1.7 WSW | 243 19.6   8.6 WSW | 241 0.00 2.8   0.0 75.5   0.9 0.00 51.0   7.2 72.6   6.7 29.8   10.6
Jacks Valley 9/5/26 2110 60.2   2.5 49   1 41.2   1.6 9.8   0.3 WNW | 299 18.8   2.1 WNW | 302 0.00 4.7   0.1 79.5   3.6 0.00 47.3   10.2 71.4   4.3 29.3   4.3
Genoa 9/5/26 2110 63.0   3.3 44   6 40.9   0.2 5.0   2.7 WNW | 286 13.5   2.9 W | 267 0.00 2.3   0.0 69.7   1.9 0.00 45.5   14.0 74.0   5.5 13.7   0.2
South Genoa (Walleys Hot Springs) 9/5/26 2110 65.7   7.0 35   17 37.4   3.7 6.1   2.6 W | 271 15.6   9.4 SW | 221 0.00 5.4   0.4 72.2   1.0 0.00 42.8   14.6 75.5   7.6 30.3   5.3
SW Gardnerville (HWY 88) 9/5/26 2110 64.6   5.2 40   7 39.8   0.5 10.1   1.7 SE | 144 15.2   0.5 ESE | 122 0.00 2.7   0.1 66.7   1.0 0.00 44.1   13.7 73.2   6.2 31.4   0.5
Sheridan 9/5/26 2110 62.4   7.1 42   9 39.0   1.8 2.7   2.8 E | 84 9.3   2.1 ESE | 106 0.00 1.1   0.0 71.8   0.7 0.00 46.7   7.3 73.9   6.1 32.2   7.6
Ruhenstroth 9/5/26 2110 61.8   2.9 43   4 39.1   0.2 2.5   6.0 SW | 232 5.8   8.0 SSW | 213 0.00 7.0   0.1 75.9   2.2 0.00 50.3   8.5 73.5   5.3 33.8   2.1
Double Spring 9/5/26 2110 63.5   9.9 27   30 29.2   9.5 10.5   6.3 SSW | 199 20.1   11.9 SSW | 193 0.00 25.1   0.1 75.2   0.3 0.00 37.7   15.6 71.3   5.0 23.4   9.4
North Topaz Lake 9/5/26 2110 63.5   3.4 33   9 33.8   2.9 2.4   6.1 NNE | 15 4.8   8.1 N | 1 0.00 7.8   0.0 75.5   0.9 0.00 50.2   8.4 75.1   4.2 29.8   1.1
Wild Oat Mountain 9/5/26 2110 62.1   4.4 33   9 33.0   2.3 3.7   0.4 SSW | 206 8.6   0.2 SSW | 206 0.00 5.8   0.0 75.1   1.0 0.00 49.2   7.3 73.1   4.8 36.9   5.6
Smith Valley 9/5/26 2110 68.9   1.1 29   1 35.6   1.7 10.8   4.5 WSW | 241 19.2   10.4 WSW | 237 0.00 2.9   0.0 79.4   1.0 0.00 44.9   17.7 78.9   2.5 25.0   16.3
Pine Grove Mountain 9/5/26 2110 53.8   2.6 33   18 25.2   8.4 11.9   2.4 ESE | 105 19.2   1.7 SE | 125 0.00 6.5   0.2 67.9   0.2 0.00 40.9   4.7 66.4   3.6 22.8   3.7
Paradise Hill 9/5/26 2110 64.4   3.0 38   8 38.2   2.3 7.6   0.3 NW | 309 13.5   2.0 WNW | 303 0.00 9.8   0.0 77.1   2.8 0.00 48.0   5.1 74.8   8.2 28.4   7.8
Winnemucca 9/5/26 2110 67.1   7.6 35   17 38.5   3.3 5.6   4.6 W | 270 16.0   11.8 WNW | 283 0.00 5.7   0.0 74.9   1.1 0.00 50.3   1.8 75.9   7.9 26.0   3.5
NE Elko 9/5/26 2110 68.0   5.8 30   14 35.0   4.7 1.8   0.9 NE | 54 4.7   0.7 ENE | 69 0.00 5.7   0.0 76.0   0.2 0.00 40.4   4.5 82.5   3.5 22.2   6.2
North Elko 9/5/26 2110 67.9   7.3 29   17 34.9   5.0 9.2   6.5 NW | 324 12.2   10.2 NW | 323 0.00 24.6   0.1 73.4   0.1 0.00 48.9   4.8 80.3   3.5 22.5   6.6
South Elko 9/5/26 2110 65.0   3.6 33   10 35.3   3.7 0.8   3.6 WNW | 288 2.9   3.0 W | 281 0.00 13.6   0.1 72.2   0.9 0.00 48.0   5.1 92.4   17.6 30.2   8.0
Lamoille 9/5/26 2110 65.1   6.7 33   14 35.6   2.9 6.6   0.7 SSE | 159 9.3   1.1 SSE | 159 0.00 6.1   0.1 70.2   0.0 0.00 44.1   2.5 79.3   2.0 29.3   7.4
Reid Gardner Sub 9/5/26 2110 89.9   0.1 20   6 43.7   9.7 8.2   1.1 SSE | 168 12.0   2.1 SSE | 165 0.00 24.7   1.7 89.4   0.2 0.00 60.7   0.9 100.9   3.2 28.8   6.3
Corn Creek 9/5/26 2110 82.5   1.5 20   1 38.0   0.6 8.8   2.2 E | 97 12.0   5.8 E | 100 0.00 3.1   0.0 91.2   0.9 0.00 69.3   1.0 94.2   2.3 33.9   6.1
Lucky Strike 9/5/26 2040 74.0   1.4 20   1 30.3   0.6 8.0   4.4 S | 173 14.5   3.1 S | 185 0.00 3.1   0.1 85.5   0.1 0.00 61.7   1.2 82.4   3.8 36.1   2.7
Lower Angel Peak 9/5/26 2110 66.9   0.9 29   3 33.5   3.3 5.3   0.7 SSE | 166 11.8   0.2 SSE | 163 0.00 3.1   0.1 74.2   0.1 0.00 53.9   2.0 77.3   2.2 28.7   1.6
Angel Peak 9/5/26 2110 56.4   0.8 39   7 31.5   5.8 18.5   1.6 SSE | 168 31.2   1.4 S | 184 0.00 2.4   0.2 69.1   0.5 0.00 52.7   1.8 66.4   1.5 45.8   1.2
Upper Kyle Canyon 9/5/26 2110 60.7   0.6 35   6 32.7   5.4 2.5   0.2 N | 352 9.8   2.7 W | 276 0.00 7.7   0.0 75.5   0.2 0.00 57.6   1.1 70.1   2.4 34.2   5.1
Mt Charleston 9/5/26 2110 58.7   2.2 36   6 31.6   3.0 1.3   8.9 S | 172 2.9   18.8 ESE | 108 0.00 13.1   0.1 67.3   0.1 0.00 57.4   1.2 69.1   1.6 28.6   0.1
Mid Kyle Canyon 9/5/26 2110 68.3   1.9 29   3 35.2   4.8 5.2   1.0 SSE | 163 12.0   3.1 S | 169 0.00 5.8   0.0 75.6   0.2 0.00 59.2   4.8 77.4   2.2 31.0   4.0
Blue Diamond 9/5/26 2110 84.6   1.5 23   5 42.7   7.4 4.9   4.1 WSW | 258 7.6   9.7 WSW | 252 0.00 1.3   0.0 89.6   0.3 0.00 68.2   2.5 89.4   0.3 31.6   3.7
Artesian Sub 9/5/26 2110 93.5   2.3 19   4 45.5   8.2 2.0   1.1 S | 188 5.1   0.4 E | 100 0.00 11.7   0.0 91.9   0.3 0.00 77.5   0.6 100.7   0.5 22.5   2.6
North Henderson 9/5/26 2110 93.4   0.9 20   5 45.7   8.6 5.3   0.1 SW | 217 8.3   1.2 SW | 217 0.00 10.5   0.1 95.2   0.2 0.00 77.6   1.5 100.8   1.0 24.5   8.9
Sandy Valley 9/5/26 2110 86.6   0.8 23   4 44.4   5.0 1.6   0.1 NNW | 341 2.5   1.4 NNW | 332 0.00 7.5   0.2 93.0   0.4 0.00 68.2   0.2 92.2   1.5 24.7   0.5
Searchlight 9/5/26 2120 79.5   4.6 36   14 50.0   17.3 4.3   3.6 SSE | 164 6.6   1.4 SSE | 158 0.00 5.7   0.1 88.5   0.3 0.00 65.6   0.8 91.1   2.7 30.6   0.5
Laughlin 9/5/26 2110 95.2   4.2 27   13 55.7   21.2 4.7   1.6 SW | 220 7.3   3.0 SW | 216 0.00 4.4   0.0 99.2   0.3 0.00 79.4   0.6 105.1   1.7 28.8   4.1
31Mission Hills 9/5/26 2110 89.0   3.8 18   4 39.9   9.0 3.5   0.2 S | 186 5.2   1.5 S | 178 0.00 6.5   0.1 93.8   2.1 0.00 74.1   0.2 97.7   3.5 30.3   8.2
32 Enterprise Sierra Cliffs 9/5/26 2110 85.2   2.3 19   4 38.9   7.7 8.5   3.4 SW | 232 14.4   7.1 SW | 234 0.00 1.4   0.0 90.8   0.0 0.00 68.2   1.4 92.4   1.3 33.0   9.0
29 Calico Basin 9/5/26 2110 82.1   1.0 21   5 38.3   7.1 8.0   1.4 SSW | 208 11.0   4.2 SSW | 202 0.00 2.4   0.0 87.1   0.6 0.00 68.9   0.6 88.9   1.3 33.9   7.2
28 Indian Springs 9/5/26 2110 80.5   1.8 16   0 30.6   2.2 3.5   3.0 SSW | 213 6.3   5.0 SW | 235 0.00 4.4   0.1 87.6   0.4 0.00 63.4   1.5 93.1   0.2 39.1   9.2
30 Jean 9/5/26 2110 83.6   2.9 20   4 38.8   8.5 5.3   0.8 WSW | 248 7.9   1.9 W | 263 0.00 5.0   0.0 89.9   0.2 0.00 65.9   1.4 92.1   0.3 35.3   6.2
VC Highlands NW 9/5/26 2110 53.9   2.9 55   9 38.0   1.4 2.6   1.3 W | 262 6.8   1.5 WNW | 284 0.00 1.6   0.0 68.0   1.9 0.00 44.4   6.4 67.2   5.6 20.4   6.7
Glenbrook-Spooner Summit 9/5/26 2110 48.2   1.1 74   4 40.2   2.4 3.4   3.4 W | 264 7.5   7.2 WSW | 252 0.00 7.9   0.1 68.5   0.7 0.00 37.2   9.5 59.8   4.2 22.6   1.2
Hobo Hot Springs 9/5/26 2110 62.6   5.1 44   4 40.5   2.2 7.3   5.7 WNW | 291 16.8   10.3 WNW | 288 0.00 1.1   0.0 71.6   0.9 0.00 41.5   14.0 75.6   5.6 24.3   2.9
Jack Valley Ranch 2 9/5/26 2110 59.6   2.4 49   0 40.5   1.9 7.0   1.1 WSW | 248 15.6   0.1 WSW | 248 0.00 2.2   0.1 73.9   0.7 0.00 48.4   8.7 71.6   4.6 30.7   4.4
Genoa North 2 9/5/26 2110 61.6   2.4 42   4 38.3   0.1 5.3   0.9 W | 280 13.9   1.4 WNW | 290 0.00 0.9   0.0 76.0   1.8 0.00 44.7   13.6 74.2   5.7 26.0   2.2
Mottsville 2 9/5/26 2110 64.0   5.8 35   9 35.8   0.6 4.2   1.3 WNW | 295 10.4   0.9 WNW | 289 0.00 1.4   0.1 71.8   0.5 0.00 43.6   14.0 74.5   6.2 23.5   5.0
Kingsbury Village 3 9/5/26 2110 45.4   4.5 72   11 37.1   0.9 2.7   0.7 N | 358 5.2   0.9 NNW | 339 0.00 3.3   0.1 61.6   1.9 0.00 38.5   2.4 59.7   6.8 17.5   2.0
Kingsbury-Benjamin Dr 2 9/5/26 2110 47.4   3.4 70   7 38.2   0.8 1.2   0.2 WSW | 252 5.5   2.6 SW | 214 0.00 2.9   0.0 67.6   1.9 0.00 41.0   2.9 61.2   5.6 15.6   0.9
Smith Valley-Wellington 9/5/26 2110 66.7   3.3 32   5 35.6   1.0 7.6   4.0 WSW | 249 15.6   3.6 WSW | 241 0.00 3.6   0.0 80.2   0.8 0.00 43.6   17.1 78.6   3.4 28.1   8.8
Sheridan South 2 9/5/26 2110 61.7   4.5 40   6 37.1   0.2 11.8   7.0 ESE | 103 23.4   15.7 E | 96 0.00 0.5   0.0 74.0   2.4 0.00 47.3   8.6 72.6   6.8 32.5   4.5
Silver Springs 9/5/26 2110 68.0   3.4 33   6 38.1   1.1 14.0   6.1 NNW | 333 21.7   9.1 NNW | 333 0.00 5.0   0.0 79.7   1.8 0.00 47.8   15.0 77.5   2.6 26.0   16.5
Fernley 9/5/26 2110 64.9   2.9 36   5 37.7   0.7 11.8   8.9 NNW | 340 16.9   11.2 NNW | 342 0.00 3.2   0.0 78.9   0.2 0.00 47.8   11.5 75.6   1.1 28.4   8.2
Spanish Springs 9/5/26 2110 61.6   2.9 44   4 39.6   0.6 2.1   0.0 E | 98 5.7   1.4 ESE | 105 0.00 10.3   0.1 78.1   1.1 0.00 42.3   15.2 74.9   4.7 25.3   0.9
Suttcliffe South 2 9/5/26 2110 63.0   3.6 42   7 39.3   0.9 7.7   5.4 W | 269 12.5   8.3 WNW | 287 0.00 4.2   0.0 76.2   1.1 0.00 39.4   14.0 70.3   2.0 17.4   17.6
Lemmon Valley North 9/5/26 2110 58.5   2.2 47   4 38.2   0.3 6.5   3.1 SW | 232 14.0   3.0 WSW | 240 0.00 2.0   0.0 69.8   0.3 0.00 34.8   17.4 69.6   4.1 24.8   4.8
Lemmon Valley NW 3 9/5/26 2110 58.2   1.3 47   3 38.4   0.4 5.2   1.5 WNW | 285 11.3   0.0 WNW | 284 0.00 1.3   0.0 78.9   1.2 0.00 39.6   14.1 70.2   4.2 23.0   8.3
VC Highlands North 9/5/26 2110 55.6   2.5 52   8 38.0   1.4 3.8   1.0 WSW | 244 8.6   2.0 W | 267 0.00 4.8   0.0 73.1   1.4 0.00 38.0   14.9 68.0   5.4 22.1   5.3
Upper Voltaire Cyn 9/5/26 2110 58.4   3.6 45   11 37.4   2.1 7.5   2.7 WSW | 241 15.9   3.7 SW | 221 0.00 1.2   0.1 70.1   2.8 0.00 48.9   5.5 67.9   7.2 28.4   7.4
Yerington NW 9/5/26 2110 68.2   5.6 31   10 36.7   2.2 5.0   2.4 NW | 313 8.3   3.2 NW | 323 0.00 7.3   0.0 77.2   0.9 0.00 45.2   14.9 76.2   1.0 22.1   10.8
Spanish Springs SW 9/5/26 2110 60.1   1.0 46   0 39.2   1.1 9.5   0.2 WNW | 285 16.6   0.4 W | 273 0.00 1.5   0.0 79.5   0.7 0.00 44.6   12.7 73.1   4.1 23.2   3.7
Cosgrave 2 8/27/26 0750 62.9   4.1 34   3 33.8   1.4 2.6   0.5 WSW | 246 4.1   1.0 W | 267 0.00 3.8   0.1 77.4   2.9 0.00 62.7   3.3 77.4   3.5 11.2   3.9
Winnemucca-Grass Valley 2 9/5/26 2110 62.5   4.7 38   17 36.7   5.2 8.4   2.7 NW | 322 10.7   2.9 NW | 318 0.00 7.8   0.0 72.2   3.3 0.00 40.3   8.2 75.8   6.5 22.8   3.7
Winnemucca-Dutch Flat Rd 9/5/26 2110 65.7   5.5 34   16 36.5   4.8 4.5   3.0 NNE | 32 12.4   6.1 NNE | 33 0.00 6.2   0.0 74.5   0.6 0.00 49.7   1.1 74.7   6.8 26.6   2.9
Paradise Valley 2 9/5/26 2110 65.4   2.5 34   2 36.4   0.7 7.8   4.9 NW | 316 12.8   7.2 NNW | 331 0.00 12.6   0.0 76.0   0.8 0.00 42.9   5.5 73.5   3.0 20.9   6.6
Golconda 2 9/5/26 2110 63.3   3.3 37   14 36.8   5.3 5.6   3.6 WNW | 295 7.8   5.1 WNW | 289 0.00 2.0   0.1 80.6   5.5 0.00 50.1   0.7 76.0   6.3 27.0   2.6
Battle Mountain - South 9/5/26 2110 65.9   6.3 33   18 36.3   5.5 13.5   10.5 NNW | 338 20.4   13.5 NNW | 329 0.00 9.2   0.0 76.6   0.0 0.00 44.6   6.3 79.5   2.2 22.7   7.8
Geiger Summit 9/5/26 2110 52.0   2.6 100   0 52.0   2.6 6.3   2.1 SW | 221 13.8   4.2 SSW | 206 0.00 6.3   0.0 68.2   1.0 0.00 42.0   7.2 64.1   4.5 22.4   8.1
Combs Canyon 3 9/5/26 2110 63.1   3.8 38   8 37.1   1.6 9.2   1.5 WSW | 251 18.0   2.1 WSW | 246 0.00 1.0   0.0 76.0   0.4 0.00 47.5   11.1 73.1   4.7 29.3   2.4
Clear Creek 9/5/26 2110 58.8   3.5 46   9 38.0   1.4 8.8   3.2 W | 261 20.9   0.2 WNW | 294 0.00 3.4   0.0 69.1   1.8 0.00 46.9   8.1 67.2   5.7 31.6   1.9
Eastlake 2 9/5/26 2110 60.7   1.6 49   1 41.3   2.0 16.4   9.8 SW | 234 24.7   12.7 SW | 236 0.00 3.4   0.0 72.5   0.1 0.00 43.6   14.5 71.7   4.1 30.1   0.9
Lovelock-Colado 2 9/5/26 2110 66.6   4.0 32   15 36.1   6.3 7.2   0.0 NNE | 29 10.6   0.0 NNE | 28 0.00 - 77.8   1.3 0.00 45.0   0.6 77.0   2.7 19.6   1.2
Spanish Springs NW 9/5/26 2110 61.6   2.0 44   4 39.3   0.3 12.3   1.8 WNW | 296 18.8   1.5 WNW | 294 0.00 12.3   0.1 71.2   2.0 0.00 45.8   12.6 74.7   4.5 24.1   1.6
Battle Mountain NW 9/5/26 2110 63.9   3.8 35   15 36.0   5.8 4.1   4.2 WSW | 255 7.7   5.7 W | 267 0.00 8.8   0.0 77.2   1.6 0.00 47.1   7.4 80.5   7.7 22.8   3.2
Austin 2 9/5/26 2010 62.7   4.5 29   15 29.7   6.8 6.3   0.5 SSW | 205 8.4   2.1 WSW | 245 0.00 2.6   0.0 72.1   0.4 0.00 37.5   0.1 74.3   0.1 28.9   4.2
Elko-Osino 9/5/26 2110 70.9   7.2 25   15 33.6   5.4 3.7   7.4 WSW | 239 9.1   7.7 SSW | 212 0.00 1.6   0.0 80.4   0.3 0.00 39.2   5.0 81.8   2.5 27.4   4.2
Elko-Bill Fishpond 2 9/5/26 2110 66.1   6.4 30   16 33.7   4.9 6.5   3.8 S | 175 9.6   2.7 S | 171 0.00 3.6   0.0 71.0   0.6 0.00 41.3   7.2 78.9   0.6 23.6   5.7
Spring Creek SE 2 9/5/26 2110 63.8   1.1 31   9 32.5   5.5 3.1   6.0 SE | 135 4.5   11.7 SE | 145 0.00 0.2   0.0 71.8   0.0 0.00 41.8   2.5 80.8   2.5 29.9   1.5
Spring Creek NW 9/5/26 2110 67.9   6.1 28   12 33.3   3.5 7.8   4.1 WNW | 302 10.6   4.6 WNW | 296 0.00 2.2   0.1 74.3   0.6 0.00 47.8   1.4 80.0   1.9 25.3   1.9
Elko-Moleen 9/5/26 2110 64.8   0.5 30   9 32.3   6.6 0.5   6.1 SE | 125 2.2   13.3 WSW | 254 0.00 6.3   0.1 78.8   0.0 0.00 41.2   2.5 81.5   2.1 20.2   1.6
Elko-West 9/5/26 2110 65.9   1.4 30   8 34.0   4.8 2.2   4.9 S | 183 6.2   4.8 SSW | 197 0.00 34.0   0.2 69.4   0.1 0.00 39.0   2.6 81.5   1.2 29.4   2.4
Elko-Adobe Creek 9/5/26 2110 61.4   8.1 32   22 31.6   5.9 6.6   7.0 NNE | 31 8.6   10.8 NNE | 29 0.00 18.6   0.1 70.1   0.1 0.00 43.8   4.8 74.4   2.0 26.8   0.9
Tuscarora SW 9/5/26 2110 61.4   8.3 32   30 31.2   9.2 8.1   3.1 ENE | 64 11.0   3.0 NE | 47 0.00 6.9   0.1 72.7   1.2 0.00 35.8   6.8 75.5   5.5 32.3   7.1
Elko-Monument Peak 9/5/26 2110 57.8   3.8 33   21 29.2   8.6 3.9   6.2 ESE | 107 6.3   8.6 E | 88 0.00 4.1   0.0 72.6   0.2 0.00 31.4   6.6 76.4   2.1 23.0   3.5
Wild Horse 9/5/26 2110 60.2   10.9 43   26 37.6   2.1 7.5   4.0 N | 3 12.3   3.2 N | 4 0.00 4.6   0.0 68.4   1.1 0.00 33.9   15.2 73.4   5.6 28.3   2.4
Max     95.2 100 55.7 25.4 - 34.0 - 0.00 43.5 99.2 0.00 79.4 105.1 45.8
Avg     63.2 43 38.1 6.3 - 11.6 - 0.00 7.0 73.6 - - - -
Min     45.4 16 25.2 0.5 - 2.2 - 0.00 0.2 32.0 0.00 31.4 58.2 8.7

Latest Observation

114 Stations

Daily Data
as of 9/5/26 9:18 PM PDT
Station Date Daily Max Temp (°F) Daily Min Temp (°F) Daily Max RH (%) Daily Min RH (%) Wind Spd (mph) Wind Dir (°) Daily Max Wind (mph) Max Wind Dir (°) Time of Max Wind Daily Rain (In) Weekly Precip (In) Season Precip (In) Soil Moist (%) Fuel Temp (°F) Fuel Moisture (%) MinBV Day (V)
Hobart Mills 9/4/26 57.4   0.4 43.0   4.7 94   2 60   11 2.5   0.6 SW | 221 16.8   3.7 WSW | 238 0548 0.07 0.10 - 7.5   0.1 49.3   3.0 32   21 12.4   0.1
Prosser Dam 9/4/26 60.0   0.5 43.6   6.5 93   11 52   10 4.0   1.0 SW | 226 20.2   1.7 SW | 232 1506 0.16 0.16 - 5.2   0.0 51.4   3.2 30   21 12.5   0.0
West Incline Village 9/4/26 50.7   1.5 43.5   1.1 98   14 68   37 3.2   0.7 SSW | 208 21.6   2.4 SSW | 192 0142 0.07 0.07 - 11.7   0.0 46.2   3.3 21   12 12.4   0.1
Incline Village (Fairview Blvd) 9/4/26 58.0   3.9 45.6   0.8 93   14 57   23 2.1   0.8 WSW | 248 18.5   3.0 W | 260 1213 0.00 0.00 - 7.6   0.0 51.0   1.5 12   5 12.5   0.0
Incline Village (Diamond Peak) 9/4/26 50.8   0.1 43.8   0.1 93   11 71   33 0.0   5.2 N | 0 12.9   2.2 W | 278 1456 0.01 0.01 - 2.4   0.1 -11.6   0.1 - 12.3   0.1
Incline Village (Mill Creek) 9/4/26 55.5   1.4 46.9   2.5 86   11 62   30 2.9   0.7 WSW | 245 18.9   0.0 WNW | 292 0346 0.00 0.00 - 2.9   0.0 - - 12.4   0.1
Incline Village (Lakeshore Blvd) 9/4/26 57.2   0.4 46.6   3.9 87   3 65   32 4.9   0.6 WSW | 240 17.0   2.5 SW | 224 0142 0.00 0.00 - 23.2   2.1 54.4   0.0 12   1 12.4   0.0
Glenbrook 9/4/26 57.8   0.0 42.6   9.0 80   9 55   17 6.6   2.4 SW | 234 26.3   0.5 WSW | 257 0144 0.00 0.00 - 43.4   0.2 52.5   2.3 16   1 12.5   0.0
Zephyr Cove 9/4/26 60.4   1.6 45.6   2.2 73   8 47   16 1.0   0.0 SE | 139 12.5   0.6 SW | 214 0101 0.00 0.00 - 2.8   0.0 53.5   0.4 9   1 12.6   0.0
Kingsbury Grade 9/4/26 58.0   2.0 41.0   3.2 83   15 51   19 1.8   0.4 W | 277 18.4   1.4 WSW | 246 0124 0.00 0.00 - 2.3   0.0 50.8   3.9 9   1 12.5   0.0
South Daggett Pass (Ridge) 9/4/26 55.0   0.6 41.1   0.5 90   13 55   18 2.0   1.0 WNW | 292 18.4   7.0 W | 271 0300 0.00 0.00 - 2.2   0.0 47.4   1.2 11   2 12.5   0.0
Palomino Valley 9/4/26 70.8   1.3 47.6   4.0 81   29 30   3 6.4   3.6 WSW | 244 34.6   1.4 WSW | 252 1540 0.00 0.00 - 6.6   0.0 61.6   3.0 9   2 12.5   0.0
East Cold Springs 9/4/26 64.0   2.1 49.8   2.1 85   7 39   2 9.2   2.3 WSW | 243 30.8   0.1 W | 264 2105 0.01 0.01 - 1.5   0.0 59.1   1.8 10   4 12.6   0.0
Peavine 9/4/26 60.8   1.3 50.0   1.1 77   3 41   11 16.5   4.1 SW | 229 48.4   1.6 WSW | 252 2010 0.05 0.06 - 4.2   0.1 55.5   1.8 19   13 13.1   0.0
West Verdi Peak 9/4/26 57.9   0.7 46.6   0.6 91   3 54   11 3.3   0.5 S | 169 19.9   4.1 SE | 146 0334 0.22 0.26 - 6.5   0.0 50.6   2.5 43   34 12.5   0.0
West Verdi 9/4/26 63.6   0.6 51.1   2.7 83   7 46   14 6.3   1.5 SW | 220 27.8   8.7 S | 181 1147 0.08 0.09 - 6.1   0.0 57.2   3.1 17   12 12.6   0.0
South Verdi 9/4/26 62.1   0.2 51.5   1.3 83   12 45   20 14.2   6.9 SW | 218 42.8   2.0 SSW | 206 2117 0.03 0.03 - 10.2   0.2 56.5   2.3 15   8 12.6   0.0
Northwest Reno 9/4/26 63.6   1.9 53.3   1.9 75   7 42   10 21.6   2.0 WSW | 255 51.2   0.6 W | 269 2041 0.00 0.00 - 24.5   0.2 -17.8   0.1 - 12.6   0.0
North Lawton 8/27/26 85.2   2.6 66.7   6.0 35   16 18   2 8.9   1.0 SW | 230 25.0   2.4 SW | 236 1526 0.00 0.00 - - - - 12.6   0.0
West Reno (Mogul) 9/4/26 65.0   1.3 52.7   2.3 83   13 42   14 4.4   3.6 WSW | 247 30.8   1.4 SW | 222 1335 0.00 0.00 - 19.5   0.1 60.4   4.1 5   4 12.5   0.0
Caughlin (Hunter Lake Trail) 9/4/26 64.3   1.0 50.6   4.4 83   17 41   10 6.9   3.2 W | 272 36.6   6.2 SW | 234 1903 0.00 0.00 - 16.2   0.1 56.2   5.5 10   3 12.6   0.0
ArrowCreek 9/4/26 65.3   20.9 49.3   51.4 68   2 37   34 9.3   2.4 S | 177 30.7   7.2 SSE | 159 0127 0.00 0.01 - - - - 12.4   1.4
Tracy 9/4/26 71.8   1.3 55.6   2.7 60   13 31   4 9.9   0.6 WSW | 250 35.9   4.2 WNW | 282 1439 0.00 0.00 - 15.6   0.1 66.2   1.3 7   0 12.7   0.0
Virginia Highlands 9/4/26 62.2   1.4 49.5   0.4 69   5 38   3 7.4   1.1 SW | 223 34.9   4.3 W | 261 1417 0.00 0.00 - 7.8   0.1 58.5   0.9 8   1 12.6   0.0
Virginia City 9/4/26 61.9   1.9 50.3   0.5 62   8 38   4 11.1   1.8 SSW | 198 34.8   4.8 S | 179 1500 0.00 0.00 - 4.7   0.0 59.4   0.4 7   1 12.6   0.0
Six Mile Canyon 9/4/26 72.1   1.4 56.2   1.8 52   10 26   1 10.4   1.0 WSW | 244 35.6   0.1 WSW | 257 1602 0.00 0.00 - 12.2   0.1 66.8   1.0 4   1 12.8   0.0
Mt Rose Highway 9/4/26 56.2   0.1 44.9   0.2 86   2 53   24 4.5   1.4 SSW | 197 33.4   1.9 WSW | 238 2034 0.03 0.06 - 7.4   0.0 48.6   4.2 23   14 12.5   0.0
Pleasant Valley 9/4/26 66.4   1.2 46.9   9.3 70   17 41   13 10.9   2.9 SW | 228 30.2   6.7 S | 189 1424 0.00 0.00 - 2.3   0.0 61.1   5.6 9   1 12.5   0.0
New Washoe City 9/4/26 65.6   1.3 50.8   2.0 66   10 38   6 11.4   1.9 SW | 223 33.0   3.5 WSW | 245 1546 0.00 0.00 - 3.4   0.0 59.9   0.8 8   1 12.6   0.0
Franktown Creek 9/4/26 64.9   1.8 53.0   3.1 73   14 44   16 4.0   1.5 SSW | 212 25.5   7.4 S | 174 0149 0.00 0.00 - 7.0   0.0 59.2   3.1 10   2 12.6   0.0
Musgrove Creek 9/4/26 63.3   0.6 51.9   1.1 75   13 43   12 2.2   0.1 W | 272 18.5   4.1 ESE | 111 1239 0.01 0.01 - 10.2   0.0 58.8   1.6 9   1 12.6   0.0
East Carson 11/22/24 63.8   0.3 41.7   4.6 85   21 21   9 14.9   6.0 SW | 224 46.6   12.7 S | 171 1835 0.05 0.05 4.48 2.5   0.0 53.9   0.3 9   0 12.6   0.0
Kings Canyon 9/4/26 63.9   1.8 54.6   0.5 56   6 40   11 5.8   0.8 SSW | 204 26.0   3.5 SW | 230 0959 0.00 0.00 - 4.1   0.0 59.5   0.5 6   1 12.6   0.0
Carson City (Voltaire Canyon) 9/4/26 66.0   3.0 55.4   2.1 56   6 37   10 15.8   0.3 SSW | 212 40.4   0.9 SSW | 201 1613 0.00 0.00 - 2.8   0.0 -11.0   0.0 - 12.6   0.0
Jacks Valley 9/4/26 67.2   0.7 54.3   0.0 55   5 36   9 11.5   0.1 WSW | 256 33.7   5.7 WSW | 248 1621 0.00 0.00 - 4.6   0.0 60.9   2.8 4   1 12.6   0.0
Genoa 9/4/26 68.6   2.4 56.4   1.0 56   5 37   12 1.9   0.3 WSW | 241 14.7   4.3 WSW | 252 2201 0.00 0.00 - 2.3   0.1 61.0   2.4 9   1 12.4   0.0
South Genoa (Walleys Hot Springs) 9/4/26 67.9   2.7 51.2   2.8 63   5 35   11 5.2   1.7 SW | 227 25.0   4.8 SSE | 150 1546 0.00 0.00 - 4.8   0.0 61.6   4.8 7   1 12.5   0.0
SW Gardnerville (HWY 88) 9/4/26 67.0   3.9 49.4   3.3 64   1 38   9 13.5   2.2 SSE | 163 31.9   4.5 S | 183 1042 0.00 0.00 - 2.8   0.0 60.4   0.9 8   0 9.3   0.3
Sheridan 9/4/26 67.8   5.0 49.8   0.7 60   11 36   8 6.3   0.3 SE | 138 24.6   3.6 SSE | 152 1734 0.00 0.00 - 1.1   0.0 61.2   2.4 4   1 12.6   0.0
Ruhenstroth 9/4/26 68.2   1.8 55.3   1.1 53   6 34   13 12.9   1.9 SSW | 198 31.7   4.1 S | 186 0439 0.00 0.00 - 6.8   0.0 63.0   1.5 6   1 12.6   0.0
Double Spring 9/4/26 66.4   0.2 48.0   9.3 66   0 31   0 8.2   1.9 WSW | 251 32.8   5.7 WSW | 257 1419 0.00 0.00 - 25.0   0.0 62.1   4.5 8   0 12.6   0.0
North Topaz Lake 9/4/26 70.8   0.4 55.2   0.7 50   1 29   2 9.0   1.0 SW | 218 30.9   2.0 SSE | 153 1007 0.00 0.00 - 7.7   0.1 66.1   0.3 6   1 12.6   0.0
Wild Oat Mountain 9/4/26 68.3   0.3 52.4   0.4 55   4 28   4 13.6   2.7 SW | 233 42.5   10.8 SW | 234 1541 0.00 0.00 - 5.7   0.0 62.0   0.4 6   1 12.6   0.0
Smith Valley 9/4/26 76.5   0.3 56.4   0.7 50   9 24   3 10.1   1.9 SW | 222 41.2   9.8 WSW | 258 1700 0.00 0.00 - 2.8   0.0 71.4   0.9 7   1 12.6   0.0
Pine Grove Mountain 9/4/26 62.9   0.6 43.2   2.0 73   13 34   5 7.7   1.0 SE | 145 26.6   4.2 N | 7 1457 0.00 0.00 - 6.7   0.1 58.0   0.1 6   2 12.6   0.0
Paradise Hill 9/4/26 66.6   6.0 53.1   2.7 74   22 43   16 11.2   1.3 WNW | 292 36.3   5.7 WNW | 286 1645 0.00 0.00 - 9.8   0.1 64.6   2.7 7   2 12.6   0.0
Winnemucca 9/4/26 68.1   5.8 52.1   2.9 70   14 43   19 5.8   1.5 NW | 309 22.5   2.9 WNW | 294 1619 0.00 0.00 - 5.6   0.0 63.4   3.0 7   1 12.6   0.0
NE Elko 9/4/26 79.0   0.1 44.9   7.3 61   25 20   4 5.2   1.3 NNE | 12 28.4   2.7 WSW | 239 1455 0.00 0.00 - 5.7   0.0 66.2   2.6 4   0 12.6   0.0
North Elko 9/4/26 76.8   0.1 53.7   0.2 57   14 21   4 6.8   1.3 WSW | 258 29.1   2.6 N | 351 2035 0.00 0.00 - 24.6   0.1 66.6   0.8 7   0 12.6   0.0
South Elko 9/4/26 110.0 53.2   0.4 89   10 22   4 4.7   2.6 W | 276 22.2   5.7 WNW | 303 1717 0.00 0.00 - 13.6   0.0 63.5   2.0 6   1 12.6   0.0
Lamoille 9/4/26 77.3   2.7 46.6   6.3 65   21 20   3 6.3   3.8 S | 177 21.9   4.5 WSW | 246 1544 0.00 0.00 - 6.2   0.1 65.6   2.1 6   0 12.8   0.0
Reid Gardner Sub 9/4/26 97.7   0.3 59.8   4.6 38   3 12   1 7.0   1.2 S | 178 35.2   9.2 SSE | 161 1501 0.00 0.00 - 24.9   0.1 85.5   0.7 1   0 12.6   0.0
Corn Creek 9/4/26 91.9   0.5 70.3   1.7 38   11 14   3 15.2   3.2 E | 91 40.0   1.1 E | 87 1101 0.00 0.00 - 3.1   0.0 83.1   1.6 2   1 12.5   0.0
Lucky Strike 9/4/26 78.6   2.4 62.9   0.3 32   6 16   7 11.5   4.0 SSE | 150 38.9   7.7 SSE | 154 1328 0.00 0.00 - 3.1   0.0 72.7   0.4 2   1 12.6   0.0
Lower Angel Peak 9/4/26 75.1   1.1 55.9   2.2 35   6 20   6 5.8   0.5 SE | 141 27.1   4.2 ESE | 121 1349 0.00 0.00 - 3.1   0.0 68.7   1.9 2   0 12.6   0.0
Angel Peak 9/4/26 64.8   0.2 53.3   0.6 38   9 27   12 19.1   10.6 S | 190 47.1   17.8 SW | 216 1927 0.00 0.00 - 2.5   0.1 61.4   0.4 4   1 12.5   0.0
Upper Kyle Canyon 9/4/26 67.7   1.8 56.6   1.1 33   5 25   10 5.9   1.1 ENE | 66 29.1   6.8 ESE | 105 1534 0.00 0.00 - 7.7   0.0 69.1   1.5 4   0 12.7   0.0
Mt Charleston 9/4/26 67.5   1.4 56.2   1.8 32   3 22   9 5.0   1.5 WNW | 293 28.7   1.2 WSW | 257 0230 0.00 0.00 - 13.2   0.1 66.4   0.1 10   0 12.6   0.0
Mid Kyle Canyon 9/4/26 75.2   1.3 59.6   2.9 34   8 19   6 10.6   3.5 SW | 230 35.0   3.0 SSW | 207 0133 0.00 0.00 - 5.8   0.0 73.0   1.9 4   1 12.7   0.0
Blue Diamond 9/4/26 89.7   2.3 70.7   3.8 32   4 13   1 8.6   0.8 W | 271 27.8   2.2 W | 281 0449 0.00 0.00 - 1.2   0.0 - - 12.6   0.0
Artesian Sub 9/4/26 100.2   1.5 78.1   1.2 31   9 11   0 5.5   0.6 SE | 146 19.9   3.4 S | 173 1400 0.00 0.00 - 11.7   0.0 - 0   0 12.6   0.0
North Henderson 9/4/26 99.8   0.6 79.1   1.3 30   7 10   1 7.4   0.0 S | 180 33.4   5.7 S | 172 1254 0.00 0.00 - 10.5   0.0 92.4   0.9 1   0 12.6   0.0
Sandy Valley 9/4/26 90.7   1.3 68.4   0.6 45   10 14   1 6.6   1.0 WSW | 244 24.2   1.7 W | 266 1442 0.00 0.00 - 7.6   0.2 82.0   1.2 4   1 12.6   0.0
Searchlight 9/4/26 88.4   0.3 64.8   0.6 44   13 16   3 8.8   0.1 S | 175 31.0   4.7 S | 171 1137 0.00 0.00 - 5.7   0.1 79.7   0.2 1   0 12.5   0.0
Laughlin 9/4/26 103.4   1.8 78.8   1.4 33   6 9   0 8.3   1.5 S | 191 32.9   6.0 SSE | 150 1326 0.00 0.00 - 4.4   0.0 90.6   1.3 3   0 12.7   0.0
31Mission Hills 9/4/26 94.2   0.5 73.8   0.4 30   9 11   1 9.9   0.2 S | 174 38.5   6.0 S | 184 1516 0.00 0.00 - 6.4   0.2 86.5   0.6 3   0 13.2   0.0
32 Enterprise Sierra Cliffs 9/4/26 91.1   1.3 69.6   3.2 35   9 11   0 9.2   3.1 S | 189 24.1   6.6 W | 268 1707 0.00 0.00 - 1.3   0.0 84.0   0.6 4   0 13.2   0.0
29 Calico Basin 9/4/26 87.6   1.5 68.3   0.6 32   9 12   0 10.0   0.5 SSW | 204 26.7   2.9 SSW | 200 1558 0.00 0.00 - 2.4   0.0 80.7   0.4 3   0 13.2   0.0
28 Indian Springs 9/4/26 92.9   0.8 65.0   3.4 33   12 12   3 8.3   2.7 S | 187 29.9   3.1 WSW | 253 1537 0.00 0.00 - 4.4   0.1 81.1   1.0 3   0 13.2   0.0
30 Jean 9/4/26 91.8   2.1 67.3   1.8 38   9 10   1 9.5   1.4 SSW | 213 29.1   0.1 SW | 219 1531 0.00 0.00 - 5.0   0.1 82.4   1.3 3   0 13.1   0.0
VC Highlands NW 9/4/26 61.6   1.4 48.3   0.5 67   6 39   7 4.7   0.5 SW | 232 27.1   1.9 WSW | 255 1506 0.00 0.00 - 1.5   0.0 55.4   2.5 8   1 13.1   0.0
Glenbrook-Spooner Summit 9/4/26 55.5   1.2 40.6   5.8 82   17 51   18 5.4   2.8 W | 264 23.8   5.8 WSW | 247 0125 0.00 0.00 - 7.7   0.0 52.3   1.6 9   1 13.2   0.0
Hobo Hot Springs 9/4/26 70.0   0.9 46.8   2.8 69   17 33   8 7.1   3.0 SW | 226 27.2   10.8 SW | 215 1733 0.00 0.00 - 1.1   0.0 61.7   2.5 7   1 13.2   0.0
Jack Valley Ranch 2 9/4/26 67.0   0.8 52.2   1.9 56   5 35   11 6.3   0.3 SW | 234 26.3   3.9 WNW | 284 1301 0.00 0.00 - 2.1   0.0 61.8   2.2 6   1 13.2   0.0
Genoa North 2 9/4/26 68.5   1.5 52.7   0.8 56   8 33   11 5.8   0.2 SW | 235 23.7   10.3 S | 177 0217 0.00 0.00 - 0.8   0.0 62.7   1.7 7   1 13.2   0.0
Mottsville 2 9/4/26 68.3   2.9 50.1   0.6 60   13 33   7 4.5   0.5 SSW | 199 28.4   3.7 S | 191 0144 0.00 0.00 - 1.3   0.0 61.8   0.6 8   1 13.2   0.0
Kingsbury Village 3 9/4/26 52.9   2.8 38.2   2.1 86   11 55   23 1.9   0.8 NNW | 329 15.5   1.7 SSE | 159 1642 0.00 0.00 - 3.2   0.0 46.1   2.9 12   2 13.2   0.0
Kingsbury-Benjamin Dr 2 9/4/26 55.6   2.7 41.6   0.2 82   11 50   18 1.7   1.0 W | 263 16.5   8.4 SW | 218 1702 0.00 0.00 - 2.9   0.1 48.8   2.6 10   2 13.2   0.0
Smith Valley-Wellington 9/4/26 75.2   0.5 54.2   3.2 55   14 23   1 9.0   0.3 SW | 229 36.9   5.8 WSW | 249 1650 0.00 0.00 - 3.5   0.0 68.9   0.6 6   1 13.2   0.0
Sheridan South 2 9/4/26 65.8   5.0 52.2   4.9 56   4 37   10 7.8   0.2 SSE | 152 28.1   3.1 S | 178 1448 0.00 0.00 - 0.5   0.0 60.7   3.1 7   1 13.2   0.0
Silver Springs 9/4/26 74.9   1.2 58.9   4.7 48   10 24   2 15.1   0.0 W | 262 42.5   0.0 SW | 236 1521 0.00 0.00 - 4.9   0.0 68.2   0.1 7   1 13.1   0.0
Fernley 9/4/26 74.6   0.9 54.0   0.0 67   25 24   2 10.8   1.3 WNW | 296 36.6   3.9 WNW | 302 1531 0.00 0.00 - 3.2   0.0 67.5   0.4 7   1 13.1   0.0
Spanish Springs 9/4/26 70.2   0.1 50.3   7.1 64   10 31   4 4.7   2.3 WSW | 246 26.2   0.7 WNW | 291 1612 0.00 0.00 - 10.1   0.1 65.1   1.7 8   1 13.2   0.0
Suttcliffe South 2 9/4/26 72.3   1.2 50.9   5.6 89   24 27   3 7.9   7.6 NW | 316 35.0   7.6 W | 274 1518 0.00 0.00 - 4.1   0.1 60.8   3.9 12   5 13.1   0.0
Lemmon Valley North 9/4/26 65.5   1.1 52.2   3.3 84   8 34   0 10.1   0.9 SSW | 213 29.7   2.7 WSW | 238 1446 0.02 0.02 - 2.0   0.0 59.2   1.2 13   6 13.2   0.0
Lemmon Valley NW 3 9/4/26 66.0   2.7 51.7   1.2 77   12 34   1 9.8   0.9 WSW | 258 31.3   0.9 SSW | 194 1226 0.00 0.00 - 1.2   0.0 62.0   0.4 8   2 13.2   0.0
VC Highlands North 9/4/26 62.6   0.9 45.7   4.5 73   14 37   5 7.6   0.0 SW | 220 27.4   2.6 SSW | 203 1619 0.00 0.00 - 4.6   0.0 58.3   1.8 8   1 13.2   0.0
Upper Voltaire Cyn 9/4/26 60.8   3.3 51.2   2.3 60   8 40   13 11.7   2.0 SSW | 201 35.9   7.6 WSW | 241 1423 0.00 0.00 - 1.1   0.0 56.5   3.8 9   1 13.2   0.0
Yerington NW 9/4/26 75.3   0.1 54.4   4.9 60   6 26   6 8.8   3.7 W | 279 32.9   8.8 W | 264 1649 0.00 0.01 - 7.2   0.0 66.2   0.5 9   1 13.2   0.0
Spanish Springs SW 9/4/26 69.0   1.4 49.6   6.8 62   3 31   4 8.2   1.2 WSW | 245 27.0   8.2 SW | 218 1336 0.00 0.00 - 1.4   0.0 63.2   1.8 8   1 13.2   0.0
Cosgrave 2 8/26/26 94.1   3.1 59.4   0.6 40   15 11   2 5.7   1.4 SSW | 205 26.1   5.0 WSW | 249 1345 0.00 0.00 - 4.0   0.1 82.4   4.3 5   1 13.2   0.0
Winnemucca-Grass Valley 2 9/4/26 69.3   5.1 48.6   0.4 81   18 39   18 7.2   0.3 NNW | 346 26.6   5.2 N | 6 1538 0.00 0.00 - 7.7   0.0 61.4   2.7 9   1 13.1   0.0
Winnemucca-Dutch Flat Rd 9/4/26 67.9   6.7 50.8   3.4 72   22 37   16 6.0   3.5 NW | 308 29.4   1.4 NW | 309 1813 0.00 0.01 - 6.2   0.0 63.5   2.0 7   2 13.2   0.0
Paradise Valley 2 9/4/26 70.5   2.0 48.4   3.9 70   10 31   5 5.3   0.3 S | 183 27.4   3.2 WSW | 246 1454 0.00 0.08 - 12.4   0.0 64.9   2.4 7   1 13.2   0.0
Golconda 2 9/4/26 69.6   5.5 50.8   2.3 72   24 37   16 9.2   1.5 NNW | 330 29.6   3.8 NNW | 340 1640 0.00 0.00 - 1.8   0.0 62.6   4.3 8   1 13.1   0.0
Battle Mountain - South 9/4/26 77.2   1.4 50.9   1.2 62   15 22   6 7.3   0.2 NNW | 329 30.6   3.5 NNW | 329 1751 0.00 0.00 - 9.2   0.0 69.3   1.6 5   1 13.1   0.0
Geiger Summit 9/4/26 59.6   1.3 47.2   0.2 100   0 100   0 8.8   0.2 SSW | 208 30.4   4.7 S | 183 1527 0.00 0.00 - 6.1   0.1 55.6   0.2 8   1 13.2   0.0
Combs Canyon 3 9/4/26 68.4   1.3 54.0   0.2 55   10 33   5 8.6   0.8 SW | 221 27.0   2.0 SW | 216 1029 0.00 0.00 - 1.0   0.0 65.2   1.6 7   0 13.2   0.0
Clear Creek 9/4/26 61.5   3.4 50.8   2.5 61   11 39   13 8.1   0.7 SSW | 192 29.7   1.5 SSE | 151 0200 0.00 0.00 - 3.4   0.0 57.1   2.8 9   1 13.1   0.0
Eastlake 2 9/4/26 67.6   0.6 56.8   2.2 54   2 34   6 9.5   1.5 S | 175 29.2   0.1 SE | 138 1458 0.00 0.00 - 3.4   0.0 63.9   1.8 7   0 13.3   0.0
Lovelock-Colado 2 9/4/26 74.3   3.1 45.5   5.8 68   3 28   8 7.5   1.0 NNE | 24 20.9   4.1 N | 350 1604 0.00 0.00 - - 64.4   2.3 7   1 13.1   0.0
Spanish Springs NW 9/4/26 70.2   1.7 52.9   4.3 63   8 30   2 5.7   1.6 W | 272 25.7   5.2 SSW | 205 1410 0.00 0.00 - 12.2   0.1 62.4   2.0 7   1 13.1   0.0
Battle Mountain NW 9/4/26 72.8   5.6 52.6   0.4 59   13 27   10 6.2   1.6 NNW | 329 26.1   8.1 WNW | 297 1843 0.00 0.00 - 8.7   0.0 64.8   4.4 5   1 13.2   0.0
Austin 2 9/4/26 74.2   0.8 37.6   0.8 74   19 17   1 5.8   0.1 SW | 235 24.7   12.4 SE | 138 1110 0.00 0.11 - 2.5   0.1 60.9   0.5 6   1 13.2   0.0
Elko-Osino 9/4/26 79.3   0.7 44.2   7.9 65   24 18   3 5.5   1.5 W | 272 23.2   4.1 WSW | 254 1516 0.00 0.00 - 1.5   0.0 67.2   1.4 7   0 13.2   0.0
Elko-Bill Fishpond 2 9/4/26 78.4   1.5 47.8   3.9 64   25 19   4 4.9   1.9 S | 187 17.9   9.6 NW | 318 1441 0.00 0.00 - 3.5   0.0 64.5   2.9 6   0 13.2   0.0
Spring Creek SE 2 9/4/26 78.3   1.2 44.2   7.1 64   20 17   3 6.5   1.0 SE | 133 28.4   1.0 SW | 214 1223 0.00 0.00 - 0.2   0.0 63.9   1.4 6   0 13.2   0.0
Spring Creek NW 9/4/26 78.1   1.4 49.2   2.6 58   17 18   2 4.9   2.4 W | 278 23.5   1.0 SSW | 194 1319 0.00 0.00 - 2.2   0.0 65.0   3.0 5   1 13.2   0.0
Elko-Moleen 9/4/26 79.4   0.1 43.6   3.6 70   25 18   3 4.8   1.1 WNW | 296 21.9   3.6 NNW | 338 2006 0.00 0.00 - 6.2   0.0 66.6   1.0 7   0 13.2   0.0
Elko-West 9/4/26 80.3   0.9 41.6   3.9 74   25 18   3 4.5   1.5 W | 278 27.1   2.6 WSW | 241 1558 0.00 0.00 - 33.4   0.2 63.9   1.8 6   0 13.1   0.0
Elko-Adobe Creek 9/4/26 72.4   1.9 46.2   2.2 71   25 22   3 7.6   1.5 W | 269 26.0   8.4 NNE | 14 2038 0.00 0.00 - 18.5   0.0 63.1   0.2 7   1 13.2   0.0
Tuscarora SW 9/4/26 70.0   2.7 42.7   4.5 73   13 28   8 7.0   0.9 N | 352 25.2   5.8 NNW | 332 1742 0.00 0.00 - 6.8   0.0 57.6   3.9 7   1 13.2   0.0
Elko-Monument Peak 9/4/26 74.3   1.9 38.0   6.2 71   28 21   2 6.9   0.0 SSW | 194 26.4   3.0 NNE | 17 1943 0.00 0.00 - 4.1   0.3 60.1   1.5 5   1 13.2   0.0
Wild Horse 9/4/26 67.7   1.9 46.6   1.1 74   21 27   6 8.0   0.9 N | 11 26.0   3.7 N | 350 1733 0.00 0.00 - 4.5   0.0 57.6   3.6 6   1 13.1   0.0
Max   110.0 79.1 100 100 21.6 - 51.2 - - 0.22 - - 43.4 92.4 43 13.3
Avg   - - - - 7.6 - - - - - - - 7.0 61.1 8 -
Min   50.7 37.6 30 9 0.0 - 12.5 - - 0.00 - - 0.2 -17.8 0 9.3

Fosberg 6Hr Max

Map

Hourly Data

Fosberg 6Hr Max

Map

Hourly Data